Time;durP1;ratioP1;P1;durP2;ratioP2;P2;SDS_P1;SDS_P2;PMS_P1;PMS_P2;Temp;Humidity;BMP_temperature;BMP_pressure;BME280_temperature;BME280_humidity;BME280_pressure;Samples;Min_cycle;Max_cycle;Signal;HPM_P1;HPM_P2
2022/05/03 04:02:05;;;;;;;14.43;11.50;;;10.10;99.90;;;-143.14;100.00;56521.75;5266011;23;20942;-80
2022/05/03 04:04:37;;;;;;;14.23;11.23;;;10.10;99.90;;;-143.14;100.00;56521.75;4968490;28;20436;-78
2022/05/03 04:07:05;;;;;;;15.70;12.10;;;10.10;99.90;;;-143.14;100.00;56521.75;4968516;28;20444;-78
2022/05/03 04:09:33;;;;;;;13.93;11.90;;;10.10;99.90;;;-143.14;100.00;56521.75;4967819;28;20462;-79
2022/05/03 04:12:02;;;;;;;13.83;10.90;;;10.00;99.90;;;-143.14;100.00;56521.75;4968327;28;20556;-79
2022/05/03 04:14:30;;;;;;;12.70;10.70;;;10.00;99.90;;;-143.14;100.00;56521.75;4968196;28;21086;-78
2022/05/03 04:16:57;;;;;;;12.50;10.77;;;10.00;99.90;;;-143.14;100.00;56521.75;4968737;28;20468;-78
2022/05/03 04:19:28;;;;;;;12.53;11.07;;;10.00;99.90;;;-143.14;100.00;56521.75;4968285;28;20666;-78
2022/05/03 04:21:55;;;;;;;13.77;10.97;;;10.00;99.90;;;-143.14;100.00;56521.75;4966827;28;20572;-78
2022/05/03 04:24:22;;;;;;;13.80;11.40;;;10.00;99.90;;;-143.14;100.00;56521.75;4967832;28;20543;-79
2022/05/03 04:26:50;;;;;;;13.83;10.87;;;10.00;99.90;;;-143.14;100.00;56521.75;4967711;28;20543;-78
2022/05/03 04:29:20;;;;;;;11.53;10.33;;;10.00;99.90;;;-143.14;100.00;56521.75;4969302;28;20552;-78
2022/05/03 04:31:47;;;;;;;12.10;9.73;;;10.00;99.90;;;-143.14;100.00;56521.75;4970090;28;20561;-79
2022/05/03 04:34:14;;;;;;;12.20;9.97;;;10.00;99.90;;;-143.14;100.00;56521.75;4969314;28;20463;-78
2022/05/03 04:36:43;;;;;;;11.80;10.53;;;10.00;99.90;;;-143.14;100.00;56521.75;4970438;28;20460;-77
2022/05/03 04:39:10;;;;;;;14.20;11.50;;;10.00;99.90;;;-143.14;100.00;56521.75;4970159;28;20459;-78
2022/05/03 04:41:37;;;;;;;11.53;9.73;;;10.00;99.90;;;-143.14;100.00;56521.75;4970351;28;20483;-77
2022/05/03 04:44:05;;;;;;;13.20;11.80;;;9.90;99.90;;;-143.14;100.00;56521.75;4967928;28;20464;-65
2022/05/03 04:46:32;;;;;;;14.00;11.47;;;9.90;99.90;;;-143.14;100.00;56521.75;4968221;28;20457;-64
2022/05/03 04:48:59;;;;;;;15.10;10.80;;;9.90;99.90;;;-143.14;100.00;56521.75;4967852;28;20456;-64
2022/05/03 04:51:26;;;;;;;11.80;10.50;;;9.90;99.90;;;-143.14;100.00;56521.75;4967938;28;20483;-64
2022/05/03 04:53:54;;;;;;;13.50;11.73;;;9.80;99.90;;;-143.14;100.00;56521.75;4967072;28;20532;-65
2022/05/03 04:56:25;;;;;;;12.07;10.63;;;9.90;99.90;;;-143.14;100.00;56521.75;4967964;28;20514;-65
2022/05/03 04:58:55;;;;;;;10.90;9.80;;;9.80;99.90;;;-143.14;100.00;56521.75;4968153;28;20460;-65
2022/05/03 05:01:24;;;;;;;11.90;10.20;;;9.90;99.90;;;-143.14;100.00;56521.75;4967745;28;20480;-66
2022/05/03 05:03:51;;;;;;;11.40;10.20;;;9.90;99.90;;;-143.14;100.00;56521.75;4966792;28;20445;-77
2022/05/03 05:06:19;;;;;;;13.03;10.53;;;9.90;99.90;;;-143.14;100.00;56521.75;4967864;28;20460;-77
2022/05/03 05:08:46;;;;;;;15.23;10.30;;;9.80;99.90;;;-143.14;100.00;56521.75;4968188;28;20460;-77
2022/05/03 05:11:15;;;;;;;12.33;10.17;;;9.90;99.90;;;-143.14;100.00;56521.75;4968405;28;20483;-78
2022/05/03 05:13:42;;;;;;;13.43;9.57;;;10.00;99.90;;;-143.14;100.00;56521.75;4967949;28;20511;-79
2022/05/03 05:16:10;;;;;;;19.53;10.83;;;10.00;99.90;;;-143.14;100.00;56521.75;4968664;28;20508;-77
2022/05/03 05:18:37;;;;;;;11.97;10.17;;;10.00;99.90;;;-143.14;100.00;56521.75;4968093;28;20892;-78
2022/05/03 05:21:04;;;;;;;11.50;10.30;;;10.00;99.90;;;-143.14;100.00;56521.75;4967655;28;21055;-78
2022/05/03 05:23:32;;;;;;;12.57;10.90;;;10.00;99.90;;;-143.14;100.00;56521.75;4967683;28;20460;-79
2022/05/03 05:25:59;;;;;;;14.00;11.67;;;10.10;99.90;;;-143.14;100.00;56521.75;4968448;28;20552;-78
2022/05/03 05:28:27;;;;;;;12.30;10.57;;;10.20;99.90;;;-143.14;100.00;56521.75;4968462;28;20441;-79
2022/05/03 05:30:54;;;;;;;11.97;9.73;;;10.20;99.90;;;-143.14;100.00;56521.75;4969268;28;20483;-79
2022/05/03 05:33:22;;;;;;;10.60;9.50;;;10.20;99.90;;;-143.14;100.00;56521.75;4969078;28;20460;-80
2022/05/03 05:35:49;;;;;;;15.20;10.70;;;10.20;99.90;;;-143.14;100.00;56521.75;4969835;28;20488;-79
2022/05/03 05:38:17;;;;;;;11.93;10.73;;;10.30;99.90;;;-143.14;100.00;56521.75;4971475;28;20459;-79
2022/05/03 05:40:46;;;;;;;11.37;10.03;;;10.20;99.90;;;-143.14;100.00;56521.75;4974102;28;20523;-79
2022/05/03 05:43:14;;;;;;;13.33;10.00;;;10.30;99.90;;;-143.14;100.00;56521.75;4973689;28;21068;-80
2022/05/03 05:45:42;;;;;;;11.33;10.13;;;10.30;99.90;;;-143.14;100.00;56521.75;4971484;28;20455;-79
2022/05/03 05:48:11;;;;;;;11.20;10.10;;;10.30;99.90;;;-143.14;100.00;56521.75;4971102;28;20479;-80
2022/05/03 05:50:38;;;;;;;11.50;10.30;;;10.30;99.90;;;-143.14;100.00;56521.75;4970323;28;20489;-80
2022/05/03 05:55:50;;;;;;;11.43;9.73;;;10.40;99.90;;;-143.14;100.00;56521.75;4970058;28;20475;-80
2022/05/03 05:58:18;;;;;;;11.60;10.20;;;10.40;99.90;;;-143.14;100.00;56521.75;4968640;28;21221;-81
2022/05/03 06:00:46;;;;;;;11.67;10.47;;;10.40;99.90;;;-143.14;100.00;56521.75;4967979;28;21099;-80
2022/05/03 06:03:14;;;;;;;12.17;10.20;;;10.40;99.90;;;-143.14;100.00;56521.75;4967712;28;20464;-80
2022/05/03 06:05:41;;;;;;;11.97;10.77;;;10.50;99.90;;;-143.14;100.00;56521.75;4968417;28;20470;-79
2022/05/03 06:08:09;;;;;;;12.83;11.13;;;10.50;99.90;;;-143.14;100.00;56521.75;4967895;28;20555;-80
2022/05/03 06:10:36;;;;;;;12.30;11.10;;;10.50;99.90;;;-143.14;100.00;56521.75;4968189;28;20477;-81
2022/05/03 06:13:04;;;;;;;13.73;12.03;;;10.50;99.90;;;-143.14;100.00;56521.75;4967249;28;21157;-80
2022/05/03 06:15:31;;;;;;;12.40;10.30;;;10.60;99.90;;;-143.14;100.00;56521.75;4968341;28;20583;-80
2022/05/03 06:18:01;;;;;;;13.10;11.67;;;10.60;99.90;;;-143.14;100.00;56521.75;4968266;28;20923;-80
2022/05/03 06:20:28;;;;;;;14.10;11.47;;;10.60;99.90;;;-143.14;100.00;56521.75;4967689;28;20452;-80
2022/05/03 06:22:55;;;;;;;13.27;11.87;;;10.60;99.90;;;-143.14;100.00;56521.75;4967241;28;20470;-80
2022/05/03 06:25:23;;;;;;;11.83;10.60;;;10.60;99.90;;;-143.14;100.00;56521.75;4968060;28;20543;-80
2022/05/03 06:27:50;;;;;;;12.30;11.00;;;10.70;99.90;;;-143.14;100.00;56521.75;4967421;28;20492;-79
2022/05/03 06:30:18;;;;;;;12.57;11.27;;;10.70;99.90;;;-143.14;100.00;56521.75;4967245;28;20456;-79
2022/05/03 06:32:45;;;;;;;11.80;10.60;;;10.80;99.90;;;-143.14;100.00;56521.75;4967977;28;20976;-78
2022/05/03 06:35:15;;;;;;;11.77;10.53;;;10.90;99.90;;;-143.14;100.00;56521.75;4971095;28;20535;-78
2022/05/03 06:37:43;;;;;;;14.83;11.30;;;10.90;99.90;;;-143.14;100.00;56521.75;4972216;28;20496;-78
2022/05/03 06:40:12;;;;;;;13.10;10.50;;;11.00;99.90;;;-143.14;100.00;56521.75;4970903;28;20499;-79
2022/05/03 06:42:40;;;;;;;12.87;11.57;;;11.00;99.90;;;-143.14;100.00;56521.75;4971554;28;20462;-79
2022/05/03 06:45:10;;;;;;;11.33;10.20;;;11.10;99.90;;;-143.14;100.00;56521.75;4972223;28;20460;-79
2022/05/03 06:47:38;;;;;;;12.93;11.27;;;11.20;99.90;;;-143.14;100.00;56521.75;4972043;28;20468;-80
2022/05/03 06:50:08;;;;;;;11.77;10.57;;;11.30;99.90;;;-143.14;100.00;56521.75;4972068;28;20895;-79
2022/05/03 06:52:37;;;;;;;11.37;10.20;;;11.30;99.90;;;-143.14;100.00;56521.75;4971651;28;20476;-77
2022/05/03 06:55:05;;;;;;;14.10;11.20;;;11.40;99.90;;;-143.14;100.00;56521.75;4972039;28;20543;-78
2022/05/03 06:57:33;;;;;;;14.23;10.57;;;11.50;99.90;;;-143.14;100.00;56521.75;4970402;28;20535;-78
2022/05/03 07:00:02;;;;;;;12.33;10.83;;;11.50;99.90;;;-143.14;100.00;56521.75;4970666;28;20583;-79
2022/05/03 07:02:31;;;;;;;11.07;9.90;;;11.70;99.90;;;-143.14;100.00;56521.75;4969671;28;20507;-78
2022/05/03 07:04:59;;;;;;;10.80;9.70;;;11.70;99.90;;;-143.14;100.00;56521.75;4970230;28;21418;-79
2022/05/03 07:07:30;;;;;;;11.00;9.80;;;11.80;99.90;;;-143.14;100.00;56521.75;4971021;28;20452;-78
2022/05/03 07:09:59;;;;;;;10.93;9.83;;;11.90;99.90;;;-143.14;100.00;56521.75;4970264;28;20969;-78
2022/05/03 07:12:27;;;;;;;11.70;10.07;;;12.00;99.90;;;-143.14;100.00;56521.75;4969826;28;20480;-79
2022/05/03 07:14:59;;;;;;;16.50;11.03;;;12.10;99.90;;;-143.14;100.00;56521.75;4970758;28;20460;-78
2022/05/03 07:22:58;;;;;;;10.87;9.77;;;12.50;99.90;;;-143.14;100.00;56521.75;4969722;28;21017;-78
2022/05/03 07:25:27;;;;;;;10.50;9.20;;;12.60;99.90;;;-143.14;100.00;56521.75;4970567;28;20547;-79
2022/05/03 07:27:55;;;;;;;10.20;9.20;;;12.70;99.90;;;-143.14;100.00;56521.75;4969868;28;20547;-79
2022/05/03 07:30:22;;;;;;;10.50;9.37;;;12.80;99.90;;;-143.14;100.00;56521.75;4969496;28;20899;-79
2022/05/03 07:32:50;;;;;;;9.47;8.57;;;12.90;99.90;;;-143.14;100.00;56521.75;4968871;28;20818;-79
2022/05/03 07:35:17;;;;;;;8.83;7.93;;;13.20;99.90;;;-143.14;100.00;56521.75;4968640;28;20978;-79
2022/05/03 07:37:44;;;;;;;8.70;7.50;;;13.40;99.90;;;-143.14;100.00;56521.75;4969047;28;20464;-79
2022/05/03 07:40:13;;;;;;;8.60;7.70;;;13.50;99.90;;;-143.14;100.00;56521.75;4968458;28;20858;-80
2022/05/03 07:42:41;;;;;;;9.10;7.87;;;13.50;99.90;;;-143.14;100.00;56521.75;4968441;28;20440;-79
2022/05/03 07:45:10;;;;;;;9.23;8.20;;;13.60;99.90;;;-143.14;100.00;56521.75;4968393;28;20456;-79
2022/05/03 07:47:38;;;;;;;9.50;8.10;;;13.80;99.90;;;-143.14;100.00;56521.75;4968859;28;20555;-79
2022/05/03 07:50:07;;;;;;;8.40;7.60;;;14.20;99.90;;;-143.14;100.00;56521.75;4968560;28;20631;-80
2022/05/03 07:52:36;;;;;;;9.50;8.03;;;14.30;99.90;;;-143.14;100.00;56521.75;4968450;28;20504;-79
2022/05/03 07:55:05;;;;;;;8.10;7.30;;;14.70;99.90;;;-143.14;100.00;56521.75;4968420;28;20555;-80
2022/05/03 07:57:33;;;;;;;8.77;7.87;;;15.00;99.90;;;-143.14;100.00;56521.75;4968457;28;20453;-79
2022/05/03 08:00:01;;;;;;;9.00;6.83;;;14.90;99.90;;;-143.14;100.00;56521.75;4968875;28;20484;-79
2022/05/03 08:02:28;;;;;;;8.17;7.30;;;15.00;99.90;;;-143.14;100.00;56521.75;4968156;28;20983;-79
2022/05/03 08:04:56;;;;;;;9.30;7.63;;;15.30;99.90;;;-143.14;100.00;56521.75;4968746;28;20464;-78
2022/05/03 08:07:23;;;;;;;7.70;7.00;;;15.50;99.90;;;-143.14;100.00;56521.75;4968184;28;20484;-79
2022/05/03 08:09:51;;;;;;;13.73;7.70;;;15.50;99.90;;;-143.14;100.00;56521.75;4968167;28;20673;-78
2022/05/03 08:12:18;;;;;;;8.30;7.30;;;15.50;99.90;;;-143.14;100.00;56521.75;4967814;28;20477;-80
2022/05/03 08:14:46;;;;;;;7.50;6.43;;;15.50;99.90;;;-143.14;100.00;56521.75;4968826;28;20449;-78
2022/05/03 08:17:14;;;;;;;8.60;7.20;;;15.60;99.90;;;-143.14;100.00;56521.75;4969456;28;20532;-78
2022/05/03 08:19:42;;;;;;;8.67;6.83;;;15.60;99.90;;;-143.14;100.00;56521.75;4969773;28;20468;-80
2022/05/03 08:22:09;;;;;;;7.47;6.73;;;15.70;99.90;;;-143.14;100.00;56521.75;4968319;28;20563;-79
2022/05/03 08:24:36;;;;;;;7.63;6.10;;;15.80;99.90;;;-143.14;100.00;56521.75;4969585;28;20888;-79
2022/05/03 08:27:07;;;;;;;8.30;6.17;;;16.00;99.90;;;-143.14;100.00;56521.75;4969398;28;20449;-79
2022/05/03 08:29:37;;;;;;;7.80;6.40;;;16.10;99.90;;;-143.14;100.00;56521.75;4970088;28;20543;-79
2022/05/03 08:32:06;;;;;;;6.77;6.07;;;16.30;99.90;;;-143.14;100.00;56521.75;4969232;28;20472;-79
2022/05/03 08:34:34;;;;;;;5.63;5.00;;;16.50;99.90;;;-143.14;100.00;56521.75;4970285;28;20823;-80
2022/05/03 08:42:30;;;;;;;5.83;5.23;;;17.80;99.90;;;-143.14;100.00;56521.75;4970773;28;20910;-81
2022/05/03 08:45:00;;;;;;;5.63;5.13;;;18.80;99.90;;;-143.14;100.00;56521.75;4971607;28;20453;-80
2022/05/03 08:47:28;;;;;;;5.20;4.70;;;19.60;99.90;;;-143.14;100.00;56521.75;4971239;28;20460;-80
2022/05/03 08:50:06;;;;;;;6.07;5.47;;;19.90;99.90;;;-143.14;100.00;56521.75;4971262;28;20461;-79
2022/05/03 08:52:48;;;;;;;6.10;4.90;;;19.60;99.90;;;-143.14;100.00;56521.75;4970042;28;20483;-79
2022/05/03 08:55:18;;;;;;;5.40;4.90;;;19.40;99.90;;;-143.14;100.00;56521.75;4969178;28;20566;-79
2022/05/03 08:57:46;;;;;;;5.97;5.37;;;20.30;99.90;;;-143.14;100.00;56521.75;4969751;28;20327;-79
2022/05/03 09:00:15;;;;;;;5.70;5.20;;;20.30;99.90;;;-143.14;100.00;56521.75;4969293;28;20452;-80
2022/05/03 09:02:43;;;;;;;5.00;4.57;;;20.00;99.90;;;-143.14;100.00;56521.75;4969619;28;20461;-80
2022/05/03 09:05:12;;;;;;;5.30;4.80;;;20.10;99.90;;;-143.14;100.00;56521.75;4971388;28;20449;-79
2022/05/03 09:07:48;;;;;;;5.83;5.10;;;20.70;99.90;;;-143.14;100.00;56521.75;4971543;28;20480;-79
2022/05/03 09:10:18;;;;;;;4.67;4.27;;;21.10;99.90;;;-143.14;100.00;56521.75;4971098;28;20879;-80
2022/05/03 09:12:46;;;;;;;5.33;4.00;;;21.40;99.90;;;-143.14;100.00;56521.75;4971131;28;20433;-80
2022/05/03 09:15:15;;;;;;;6.00;4.50;;;21.40;99.90;;;-143.14;100.00;56521.75;4971981;28;20449;-80
2022/05/03 09:17:44;;;;;;;4.83;3.90;;;21.60;99.90;;;-143.14;100.00;56521.75;4971713;28;21304;-80
2022/05/03 09:25:54;;;;;;;4.60;3.70;;;22.50;99.90;;;-143.14;100.00;56521.75;4969508;28;20460;-81
2022/05/03 09:28:23;;;;;;;4.57;3.93;;;22.00;99.90;;;-143.14;100.00;56521.75;4969513;28;20460;-81
2022/05/03 09:30:53;;;;;;;4.13;3.40;;;22.00;99.90;;;-143.14;100.00;56521.75;4967596;28;20472;-68
2022/05/03 09:33:23;;;;;;;4.97;4.00;;;22.20;99.90;;;-143.14;100.00;56521.75;4966077;28;20445;-68
2022/05/03 09:35:53;;;;;;;5.33;4.40;;;22.50;99.90;;;-143.14;100.00;56521.75;4967117;28;21352;-68
2022/05/03 09:38:20;;;;;;;3.93;3.20;;;23.00;99.90;;;-143.14;100.00;56521.75;4967279;28;20461;-67
2022/05/03 09:40:48;;;;;;;3.97;3.67;;;22.90;99.90;;;-143.14;100.00;56521.75;4966973;28;20831;-68
2022/05/03 09:43:17;;;;;;;3.33;3.00;;;22.70;99.90;;;-143.14;100.00;56521.75;4966667;28;20555;-68
2022/05/03 09:45:44;;;;;;;3.50;3.20;;;22.50;99.90;;;-143.14;100.00;56521.75;4967142;28;20463;-68
2022/05/03 09:48:11;;;;;;;4.03;3.63;;;22.40;99.90;;;-143.14;100.00;56521.75;4966662;28;20460;-68
2022/05/03 09:50:45;;;;;;;3.57;3.27;;;22.50;99.90;;;-143.14;100.00;56521.75;4967006;28;20479;-68
2022/05/03 09:53:18;;;;;;;3.20;2.90;;;22.50;99.90;;;-143.14;100.00;56521.75;4949526;28;20445;-68
2022/05/03 09:55:48;;;;;;;3.30;3.00;;;22.40;99.90;;;-143.14;100.00;56521.75;4947732;29;20524;-67
2022/05/03 09:58:17;;;;;;;3.57;3.30;;;22.40;99.90;;;-143.14;100.00;56521.75;4947741;29;20461;-68
2022/05/03 10:00:46;;;;;;;3.37;3.07;;;22.30;99.90;;;-143.14;100.00;56521.75;4947770;28;20565;-68
2022/05/03 10:03:15;;;;;;;3.77;2.90;;;22.40;99.90;;;-143.14;100.00;56521.75;4947178;29;20492;-68
2022/05/03 10:05:45;;;;;;;4.00;3.13;;;22.50;99.90;;;-143.14;100.00;56521.75;4947776;28;20477;-66
2022/05/03 10:08:16;;;;;;;3.73;3.33;;;22.60;99.90;;;-143.14;100.00;56521.75;4946921;29;20461;-66
2022/05/03 10:10:56;;;;;;;3.80;3.20;;;22.70;99.90;;;-143.14;100.00;56521.75;4947406;28;20489;-67
2022/05/03 10:13:28;;;;;;;4.20;3.63;;;22.70;99.90;;;-143.14;100.00;56521.75;4950310;29;20449;-79
2022/05/03 10:21:38;;;;;;;4.27;3.87;;;22.60;99.90;;;-143.14;100.00;56521.75;4948127;28;20973;-79
2022/05/03 10:24:08;;;;;;;4.33;3.43;;;22.70;99.90;;;-143.14;100.00;56521.75;4948466;29;20817;-79
2022/05/03 10:27:02;;;;;;;3.80;3.43;;;22.70;99.90;;;-143.14;100.00;56521.75;4949164;29;20973;-79
2022/05/03 10:29:32;;;;;;;4.03;3.63;;;22.60;99.90;;;-143.14;100.00;56521.75;4950214;28;20942;-79
2022/05/03 10:32:03;;;;;;;5.37;4.03;;;22.60;99.90;;;-143.14;100.00;56521.75;4949087;28;20476;-79
2022/05/03 10:34:56;;;;;;;5.83;3.70;;;22.60;99.90;;;-143.14;100.00;56521.75;4949936;29;20465;-79
2022/05/03 10:38:05;;;;;;;5.23;3.53;;;22.70;99.90;;;-143.14;100.00;56521.75;4950161;29;20481;-79
2022/05/03 10:40:41;;;;;;;4.33;3.67;;;22.80;99.90;;;-143.14;100.00;56521.75;4950823;28;20469;-79
2022/05/03 10:43:14;;;;;;;4.23;3.83;;;22.70;99.90;;;-143.14;100.00;56521.75;4950310;29;21005;-80
2022/05/03 10:45:53;;;;;;;6.63;4.57;;;22.70;99.90;;;-143.14;100.00;56521.75;4950411;29;20537;-80
2022/05/03 10:48:29;;;;;;;4.30;3.90;;;22.50;99.90;;;-143.14;100.00;56521.75;4952803;29;20532;-80
2022/05/03 10:51:00;;;;;;;6.13;4.73;;;22.40;99.90;;;-143.14;100.00;56521.75;4955177;28;20540;-80
2022/05/03 10:53:30;;;;;;;10.83;5.03;;;22.30;99.90;;;-143.14;100.00;56521.75;4955451;29;20452;-80
2022/05/03 10:56:21;;;;;;;7.87;5.40;;;22.10;99.90;;;-143.14;100.00;56521.75;4956844;29;20474;-79
2022/05/03 10:59:06;;;;;;;10.83;5.93;;;21.80;99.90;;;-143.14;100.00;56521.75;4956306;29;20489;-79
2022/05/03 11:01:54;;;;;;;5.80;5.23;;;21.50;99.90;;;-143.14;100.00;56521.75;4957091;28;20477;-80
2022/05/03 11:04:22;;;;;;;8.10;6.37;;;21.20;99.90;;;-143.14;100.00;56521.75;4956187;29;20505;-79
2022/05/03 11:06:50;;;;;;;8.07;5.87;;;21.10;99.90;;;-143.14;100.00;56521.75;4957297;29;21089;-80
2022/05/03 11:09:30;;;;;;;20.83;7.70;;;20.90;99.90;;;-143.14;100.00;56521.75;4956880;29;20464;-79
2022/05/03 11:12:09;;;;;;;13.97;6.63;;;20.80;99.90;;;-143.14;100.00;56521.75;4956812;28;20687;-79
2022/05/03 11:14:56;;;;;;;11.57;7.10;;;20.60;99.90;;;-143.14;100.00;56521.75;4956465;29;20926;-80
2022/05/03 11:17:23;;;;;;;8.63;6.30;;;20.30;99.90;;;-143.14;100.00;56521.75;4955948;28;21383;-79
2022/05/03 11:20:00;;;;;;;6.83;5.47;;;20.00;99.90;;;-143.14;100.00;56521.75;4949473;28;20450;-68
2022/05/03 11:22:36;;;;;;;7.40;5.30;;;19.70;99.90;;;-143.14;100.00;56521.75;4953579;28;20509;-80
2022/05/03 11:25:13;;;;;;;11.27;5.03;;;19.60;99.90;;;-143.14;100.00;56521.75;4957854;29;20461;-81
2022/05/03 11:27:44;;;;;;;7.23;5.53;;;19.50;99.90;;;-143.14;100.00;56521.75;4957364;28;20473;-80
2022/05/03 11:30:14;;;;;;;8.77;6.70;;;19.50;99.90;;;-143.14;100.00;56521.75;4956856;28;20842;-80
2022/05/03 11:32:43;;;;;;;8.83;7.07;;;19.30;99.90;;;-143.14;100.00;56521.75;4955164;29;20533;-80
2022/05/03 11:35:16;;;;;;;7.60;5.77;;;19.20;99.90;;;-143.14;100.00;56521.75;4955623;29;21043;-80
2022/05/03 11:37:50;;;;;;;6.20;5.60;;;19.30;99.90;;;-143.14;100.00;56521.75;4952777;29;20478;-79
2022/05/03 11:40:21;;;;;;;7.77;6.63;;;19.30;99.90;;;-143.14;100.00;56521.75;4952244;28;20445;-79
2022/05/03 11:42:53;;;;;;;9.03;7.43;;;19.30;99.90;;;-143.14;100.00;56521.75;4953074;28;20468;-79
2022/05/03 11:45:21;;;;;;;9.53;8.20;;;19.30;99.90;;;-143.14;100.00;56521.75;4952240;28;20942;-78
2022/05/03 11:47:51;;;;;;;8.97;8.03;;;19.40;99.90;;;-143.14;100.00;56521.75;4953113;29;20521;-79
2022/05/03 11:56:04;;;;;;;7.93;7.23;;;19.90;99.90;;;-143.14;100.00;56521.75;4956460;29;20429;-79
2022/05/03 11:58:35;;;;;;;6.30;5.70;;;20.10;99.90;;;-143.14;100.00;56521.75;4957943;29;20497;-80
2022/05/03 12:01:02;;;;;;;8.20;6.97;;;20.20;99.90;;;-143.14;100.00;56521.75;4957092;28;20509;-81
2022/05/03 12:03:45;;;;;;;8.93;8.03;;;20.10;99.90;;;-143.14;100.00;56521.75;4957668;29;20457;-80
2022/05/03 12:06:13;;;;;;;10.80;7.63;;;20.20;99.90;;;-143.14;100.00;56521.75;4959689;29;20458;-81
2022/05/03 12:08:40;;;;;;;9.07;7.10;;;20.20;99.90;;;-143.14;100.00;56521.75;4958932;29;20473;-81
2022/05/03 12:11:20;;;;;;;8.17;6.77;;;20.20;99.90;;;-143.14;100.00;56521.75;4957735;28;20481;-81
2022/05/03 12:13:52;;;;;;;7.83;7.03;;;20.30;99.90;;;-143.14;100.00;56521.75;4955831;29;20815;-81
2022/05/03 12:16:24;;;;;;;8.60;7.80;;;20.30;99.90;;;-143.14;100.00;56521.75;4954907;28;20512;-78
2022/05/03 12:18:53;;;;;;;8.00;7.20;;;20.40;99.90;;;-143.14;100.00;56521.75;4954807;29;20438;-79
2022/05/03 12:21:25;;;;;;;7.83;7.03;;;20.50;99.90;;;-143.14;100.00;56521.75;4953896;28;20481;-79
2022/05/03 12:23:59;;;;;;;7.20;6.50;;;20.50;99.90;;;-143.14;100.00;56521.75;4954601;29;20907;-79
2022/05/03 12:26:35;;;;;;;7.30;6.60;;;20.60;99.90;;;-143.14;100.00;56521.75;4952217;29;20429;-81
2022/05/03 12:29:07;;;;;;;6.70;6.00;;;20.50;99.90;;;-143.14;100.00;56521.75;4950766;29;20484;-81
2022/05/03 12:31:38;;;;;;;8.27;7.23;;;20.60;99.90;;;-143.14;100.00;56521.75;4949381;28;20497;-80
2022/05/03 12:34:07;;;;;;;6.67;5.90;;;20.60;99.90;;;-143.14;100.00;56521.75;4949638;29;21001;-80
2022/05/03 12:36:37;;;;;;;8.97;6.23;;;20.50;99.90;;;-143.14;100.00;56521.75;4950052;29;20485;-80
2022/05/03 12:39:14;;;;;;;6.87;6.10;;;20.40;99.90;;;-143.14;100.00;56521.75;4950245;29;20458;-81
2022/05/03 12:41:43;;;;;;;6.40;5.43;;;20.30;99.90;;;-143.14;100.00;56521.75;4949736;28;20895;-81
2022/05/03 12:44:14;;;;;;;12.77;5.57;;;20.10;99.90;;;-143.14;100.00;56521.75;4950348;29;20538;-81
2022/05/03 12:46:43;;;;;;;16.00;7.90;;;19.80;99.90;;;-143.14;100.00;56521.75;4950599;29;20500;-81
2022/05/03 12:49:12;;;;;;;11.60;6.60;;;19.50;99.90;;;-143.14;100.00;56521.75;4950337;29;20464;-81
2022/05/03 12:51:42;;;;;;;8.00;6.13;;;19.30;99.90;;;-143.14;100.00;56521.75;4950877;28;20462;-82
2022/05/03 12:54:10;;;;;;;10.20;6.20;;;19.20;99.90;;;-143.14;100.00;56521.75;4953405;28;20449;-81
2022/05/03 12:59:26;;;;;;;7.50;5.50;;;18.80;99.90;;;-143.14;100.00;56521.75;4951611;29;20460;-82
2022/05/03 13:01:56;;;;;;;6.80;6.10;;;18.70;99.90;;;-143.14;100.00;56521.75;4951177;28;20485;-81
2022/05/03 13:04:25;;;;;;;7.97;5.10;;;18.50;99.90;;;-143.14;100.00;56521.75;4951472;29;20445;-81
2022/05/03 13:06:52;;;;;;;7.60;5.43;;;18.40;99.90;;;-143.14;100.00;56521.75;4950520;29;20496;-80
2022/05/03 13:09:20;;;;;;;4.73;4.10;;;18.20;99.90;;;-143.14;100.00;56521.75;4951418;29;20511;-81
2022/05/03 13:11:52;;;;;;;4.70;4.13;;;17.90;99.90;;;-143.14;100.00;56521.75;4951310;28;20498;-82
2022/05/03 13:14:20;;;;;;;4.20;3.80;;;17.80;99.90;;;-143.14;100.00;56521.75;4952159;29;20493;-82
2022/05/03 13:16:49;;;;;;;5.13;3.83;;;17.70;99.90;;;-143.14;100.00;56521.75;4953775;28;20954;-80
2022/05/03 13:19:16;;;;;;;5.57;4.60;;;17.50;99.90;;;-143.14;100.00;56521.75;4953196;28;20450;-79
2022/05/03 13:21:45;;;;;;;9.17;3.60;;;17.40;99.90;;;-143.14;100.00;56521.75;4953406;28;20537;-81
2022/05/03 13:24:16;;;;;;;6.50;5.60;;;17.30;99.90;;;-143.14;100.00;56521.75;4951873;29;20449;-80
2022/05/03 13:26:43;;;;;;;4.10;3.80;;;17.20;99.90;;;-143.14;100.00;56521.75;4953116;29;20442;-79
2022/05/03 13:29:17;;;;;;;5.50;4.30;;;17.10;99.90;;;-143.14;100.00;56521.75;4952399;29;20474;-81
2022/05/03 13:31:45;;;;;;;11.50;9.70;;;17.00;99.90;;;-143.14;100.00;56521.75;4953607;28;20480;-81
2022/05/03 13:34:15;;;;;;;8.90;7.00;;;17.00;99.90;;;-143.14;100.00;56521.75;4954047;29;20493;-81
2022/05/03 13:42:14;;;;;;;22.67;20.40;;;17.30;99.90;;;-143.14;100.00;56521.75;4950863;28;20754;-81
2022/05/03 13:44:42;;;;;;;8.10;6.53;;;17.40;99.90;;;-143.14;100.00;56521.75;4954932;28;21237;-79
2022/05/03 13:47:12;;;;;;;4.20;3.80;;;17.40;99.90;;;-143.14;100.00;56521.75;4954852;28;20493;-80
2022/05/03 13:49:42;;;;;;;6.33;4.37;;;17.40;99.90;;;-143.14;100.00;56521.75;4951410;28;20442;-65
2022/05/03 13:52:10;;;;;;;5.10;4.30;;;17.50;99.90;;;-143.14;100.00;56521.75;4947321;28;20513;-66
2022/05/03 13:54:37;;;;;;;5.23;4.60;;;17.60;99.90;;;-143.14;100.00;56521.75;4947880;29;20589;-67
2022/05/03 13:57:05;;;;;;;7.17;4.40;;;17.60;99.90;;;-143.14;100.00;56521.75;4947301;29;20453;-66
2022/05/03 13:59:33;;;;;;;5.20;4.70;;;17.60;99.90;;;-143.14;100.00;56521.75;4947595;28;20457;-67
2022/05/03 14:02:00;;;;;;;5.27;4.60;;;17.60;99.90;;;-143.14;100.00;56521.75;4947130;28;20496;-66
2022/05/03 14:04:29;;;;;;;7.40;5.07;;;17.60;99.90;;;-143.14;100.00;56521.75;4954413;28;20453;-79
2022/05/03 14:06:57;;;;;;;8.50;5.07;;;17.50;99.90;;;-143.14;100.00;56521.75;4974920;28;20465;-79
2022/05/03 14:09:24;;;;;;;7.43;5.20;;;17.50;99.90;;;-143.14;100.00;56521.75;4973097;28;20914;-79
2022/05/03 14:11:52;;;;;;;5.17;4.67;;;17.40;99.90;;;-143.14;100.00;56521.75;4972041;28;20559;-79
2022/05/03 14:14:19;;;;;;;7.73;5.50;;;17.40;99.90;;;-143.14;100.00;56521.75;4969368;28;20969;-81
2022/05/03 14:16:46;;;;;;;6.63;4.80;;;17.50;99.90;;;-143.14;100.00;56521.75;4966868;28;20448;-80
2022/05/03 14:19:13;;;;;;;5.87;4.53;;;17.60;99.90;;;-143.14;100.00;56521.75;4968985;28;20528;-80
2022/05/03 14:21:40;;;;;;;7.97;4.57;;;17.80;99.90;;;-143.14;100.00;56521.75;4967696;28;20560;-80
2022/05/03 14:24:09;;;;;;;4.87;3.77;;;18.00;99.90;;;-143.14;100.00;56521.75;4966941;28;20456;-79
2022/05/03 14:26:37;;;;;;;5.40;3.63;;;18.10;99.90;;;-143.14;100.00;56521.75;4966241;28;20457;-79
2022/05/03 14:29:07;;;;;;;6.63;3.53;;;18.30;99.90;;;-143.14;100.00;56521.75;4966282;28;20460;-79
2022/05/03 14:31:36;;;;;;;5.40;3.00;;;18.50;99.90;;;-143.14;100.00;56521.75;4966201;28;20491;-78
2022/05/03 14:34:04;;;;;;;4.53;3.10;;;18.60;99.90;;;-143.14;100.00;56521.75;4966004;28;20457;-79
2022/05/03 14:36:32;;;;;;;4.70;3.00;;;18.70;99.90;;;-143.14;100.00;56521.75;4966675;28;20459;-79
2022/05/03 14:38:59;;;;;;;4.60;3.53;;;18.80;99.90;;;-143.14;100.00;56521.75;4967036;28;20506;-79
2022/05/03 14:41:29;;;;;;;4.50;4.03;;;18.90;99.90;;;-143.14;100.00;56521.75;4966054;28;20482;-79
2022/05/03 14:43:57;;;;;;;7.60;3.20;;;19.00;99.90;;;-143.14;100.00;56521.75;4966237;28;20959;-80
2022/05/03 14:46:24;;;;;;;5.13;3.00;;;19.20;99.90;;;-143.14;100.00;56521.75;4966310;28;20471;-79